Terminal Aerodrome Forecast
Issued by NWS Kansas City/Pleasant Hill, MO

Home | Current Version | Previous Version | Text Only | Print | Product List | Glossary On
Versions: 1 2 3 4 5 6 7 8 9 10 11 12 13 14 15 16 17 18 19 20
000
FTUS43 KEAX 261725
TAFMCI
TAF
KMCI 261725Z 2618/2718 26005KT P6SM OVC015
     FM262200 VRB04KT P6SM BKN025
     FM270400 05006KT 4SM -SHRA BR OVC007
     FM270800 02007KT 2SM -SHRA BR OVC004
     FM271600 01009KT P6SM OVC007=

USA.gov is the U.S. government's official web portal to all federal, state and local government web resources and services.